createdAt,value
2019-03-19T00:01:25.716Z,3.77
2019-03-19T00:03:53.841Z,3.17
2019-03-19T00:06:21.956Z,4.00
2019-03-19T00:08:50.094Z,3.60
2019-03-19T00:11:18.203Z,3.70
2019-03-19T00:13:46.344Z,3.87
2019-03-19T00:16:14.455Z,4.47
2019-03-19T00:18:42.615Z,3.98
2019-03-19T00:21:10.727Z,3.90
2019-03-19T00:23:38.836Z,5.13
2019-03-19T00:26:06.995Z,4.42
2019-03-19T00:28:35.209Z,4.50
2019-03-19T00:31:03.304Z,3.90
2019-03-19T00:33:31.462Z,4.83
2019-03-19T00:35:59.645Z,4.17
2019-03-19T00:38:27.764Z,5.00
2019-03-19T00:40:55.902Z,4.97
2019-03-19T00:43:24.026Z,5.10
2019-03-19T00:45:52.164Z,6.33
2019-03-19T00:48:20.275Z,5.60
2019-03-19T00:50:48.420Z,5.60
2019-03-19T00:53:16.538Z,5.95
2019-03-19T00:55:44.684Z,6.43
2019-03-19T00:58:12.800Z,6.30
2019-03-19T01:00:40.911Z,6.90
2019-03-19T01:03:09.056Z,6.90
2019-03-19T01:05:37.182Z,6.77
2019-03-19T01:08:05.389Z,6.93
2019-03-19T01:10:33.828Z,6.83
2019-03-19T01:13:01.966Z,6.30
2019-03-19T01:15:30.081Z,6.70
2019-03-19T01:17:58.217Z,7.60
2019-03-19T01:20:26.332Z,7.17
2019-03-19T01:22:54.476Z,7.17
2019-03-19T01:25:23.040Z,7.27
2019-03-19T01:27:51.309Z,6.23
2019-03-19T01:30:19.432Z,6.85
2019-03-19T01:32:47.577Z,6.35
2019-03-19T01:35:15.700Z,7.03
2019-03-19T01:37:43.848Z,7.23
2019-03-19T01:40:12.391Z,7.03
2019-03-19T01:42:40.564Z,7.90
2019-03-19T01:45:09.266Z,7.13
2019-03-19T01:47:37.397Z,7.67
2019-03-19T01:50:07.106Z,8.50
2019-03-19T01:52:35.235Z,7.80
2019-03-19T01:55:04.348Z,8.57
2019-03-19T01:57:32.459Z,8.05
2019-03-19T02:00:00.596Z,7.62
2019-03-19T02:02:28.719Z,8.53
2019-03-19T02:04:56.856Z,8.43
2019-03-19T02:07:24.972Z,7.65
2019-03-19T02:09:53.131Z,8.15
2019-03-19T02:12:21.247Z,8.20
2019-03-19T02:14:49.418Z,9.00
2019-03-19T02:17:17.609Z,8.90
2019-03-19T02:19:46.141Z,9.75
2019-03-19T02:22:14.272Z,9.38
2019-03-19T02:24:42.401Z,8.68
2019-03-19T02:27:10.595Z,8.70
2019-03-19T02:29:38.722Z,8.70
2019-03-19T02:32:06.884Z,8.93
2019-03-19T02:34:35.066Z,10.18
2019-03-19T02:37:03.201Z,9.75
2019-03-19T02:39:31.320Z,9.93
2019-03-19T02:41:59.512Z,9.45
2019-03-19T02:44:27.673Z,8.98
2019-03-19T02:46:55.910Z,10.10
2019-03-19T02:49:24.089Z,9.80
2019-03-19T02:51:52.231Z,9.45
2019-03-19T02:54:20.354Z,9.80
2019-03-19T02:56:48.514Z,10.38
2019-03-19T02:59:16.629Z,9.73
2019-03-19T03:01:44.748Z,9.35
2019-03-19T03:04:12.889Z,10.38
2019-03-19T03:06:41.012Z,10.32
2019-03-19T03:09:09.155Z,10.17
2019-03-19T03:11:37.347Z,10.38
2019-03-19T03:14:05.560Z,10.95
2019-03-19T03:16:33.680Z,10.08
2019-03-19T03:19:01.833Z,11.08
2019-03-19T03:21:29.957Z,10.65
2019-03-19T03:23:58.089Z,11.10
2019-03-19T03:26:26.210Z,11.15
2019-03-19T03:28:54.364Z,10.82
2019-03-19T03:31:22.551Z,11.38
2019-03-19T03:33:50.694Z,12.13
2019-03-19T03:36:18.906Z,11.40
2019-03-19T03:38:47.049Z,11.63
2019-03-19T03:41:15.173Z,11.78
2019-03-19T03:43:43.297Z,12.58
2019-03-19T03:46:11.450Z,13.03
2019-03-19T03:48:39.571Z,12.60
2019-03-19T03:51:07.712Z,12.68
2019-03-19T03:53:35.895Z,12.65
2019-03-19T03:56:04.099Z,11.43
2019-03-19T03:58:32.227Z,12.33
2019-03-19T04:01:00.370Z,12.15
2019-03-19T04:03:28.499Z,11.75
2019-03-19T04:05:56.776Z,13.40
2019-03-19T04:08:25.008Z,12.47
2019-03-19T04:10:53.136Z,11.93
2019-03-19T04:13:21.295Z,12.33
2019-03-19T04:15:49.550Z,14.07
2019-03-19T04:18:17.761Z,12.88
2019-03-19T04:20:45.870Z,12.33
2019-03-19T04:23:14.008Z,11.70
2019-03-19T04:25:42.146Z,11.10
2019-03-19T04:28:10.289Z,12.93
2019-03-19T04:30:38.417Z,12.88
2019-03-19T04:33:06.653Z,12.20
2019-03-19T04:35:35.160Z,12.03
2019-03-19T04:38:03.295Z,11.65
2019-03-19T04:40:31.440Z,10.85
2019-03-19T04:42:59.565Z,11.73
2019-03-19T04:45:27.708Z,11.63
2019-03-19T04:47:55.840Z,11.75
2019-03-19T04:50:24.063Z,11.63
2019-03-19T04:53:11.531Z,11.57
2019-03-19T04:55:39.669Z,12.00
2019-03-19T04:58:07.794Z,12.18
2019-03-19T05:00:35.929Z,10.45
2019-03-19T05:03:04.212Z,12.55
2019-03-19T05:05:32.368Z,11.73
2019-03-19T05:08:00.503Z,12.65
2019-03-19T05:10:28.702Z,12.43
2019-03-19T05:12:56.831Z,11.93
2019-03-19T05:15:24.974Z,12.03
2019-03-19T05:17:53.092Z,12.93
2019-03-19T05:20:21.220Z,11.43
2019-03-19T05:22:49.412Z,12.13
2019-03-19T05:25:17.552Z,11.83
2019-03-19T05:27:46.686Z,10.98
2019-03-19T05:30:15.565Z,11.20
2019-03-19T05:32:43.706Z,11.67
2019-03-19T05:35:11.913Z,13.47
2019-03-19T05:37:40.218Z,11.87
2019-03-19T05:40:09.617Z,10.70
2019-03-19T05:42:37.769Z,11.93
2019-03-19T05:45:07.665Z,11.45
2019-03-19T05:47:38.179Z,11.30
2019-03-19T05:50:07.192Z,11.35
2019-03-19T05:52:35.341Z,10.90
2019-03-19T05:55:03.937Z,10.90
2019-03-19T05:57:32.068Z,9.43
2019-03-19T06:00:00.392Z,11.25
2019-03-19T06:02:28.517Z,10.75
2019-03-19T06:04:56.637Z,9.67
2019-03-19T06:07:24.803Z,10.77
2019-03-19T06:09:53.008Z,10.60
2019-03-19T06:12:21.136Z,10.13
2019-03-19T06:14:49.260Z,9.90
2019-03-19T06:17:17.372Z,9.73
2019-03-19T06:19:45.508Z,11.33
2019-03-19T06:22:13.630Z,9.73
2019-03-19T06:24:41.763Z,8.90
2019-03-19T06:27:09.871Z,9.10
2019-03-19T06:29:38.000Z,8.40
2019-03-19T06:32:06.185Z,9.03
2019-03-19T06:34:34.677Z,8.10
2019-03-19T06:37:02.794Z,8.73
2019-03-19T06:39:30.912Z,7.87
2019-03-19T06:41:59.052Z,7.97
2019-03-19T06:44:27.157Z,7.53
2019-03-19T06:46:55.284Z,7.63
2019-03-19T06:49:23.397Z,7.63
2019-03-19T06:51:51.515Z,6.73
2019-03-19T06:54:19.634Z,7.33
2019-03-19T06:56:47.768Z,7.30
2019-03-19T06:59:15.872Z,6.80
2019-03-19T07:01:44.117Z,6.27
2019-03-19T07:04:12.540Z,5.47
2019-03-19T07:06:40.691Z,6.27
2019-03-19T07:09:09.417Z,6.27
2019-03-19T07:11:37.600Z,5.73
2019-03-19T07:14:05.724Z,5.53
2019-03-19T07:16:33.838Z,5.90
2019-03-19T07:19:01.972Z,7.37
2019-03-19T07:21:30.083Z,5.97
2019-03-19T07:23:58.216Z,5.70
2019-03-19T07:26:26.327Z,5.80
2019-03-19T07:28:54.484Z,5.97
2019-03-19T07:31:30.407Z,6.93
2019-03-19T07:33:52.532Z,5.60
2019-03-19T07:36:20.643Z,6.17
2019-03-19T07:38:48.761Z,5.73
2019-03-19T07:41:17.686Z,5.43
2019-03-19T07:43:45.960Z,5.50
2019-03-19T07:46:14.076Z,5.20
2019-03-19T07:48:42.273Z,4.57
2019-03-19T07:51:10.414Z,4.30
2019-03-19T07:53:38.524Z,4.23
2019-03-19T07:56:06.648Z,3.87
2019-03-19T07:58:44.757Z,4.27
2019-03-19T08:01:04.609Z,4.20
2019-03-19T08:03:32.729Z,4.40
2019-03-19T08:06:00.919Z,4.30
2019-03-19T08:08:29.048Z,4.00
2019-03-19T08:10:57.151Z,4.07
2019-03-19T08:13:25.268Z,3.97
2019-03-19T08:15:53.468Z,4.07
2019-03-19T08:18:21.590Z,4.30
2019-03-19T08:20:49.692Z,4.37
2019-03-19T08:23:17.991Z,4.07
2019-03-19T08:25:46.104Z,4.27
2019-03-19T08:28:14.241Z,3.57
2019-03-19T08:30:42.354Z,3.63
2019-03-19T08:33:10.486Z,4.60
2019-03-19T08:35:38.607Z,3.03
2019-03-19T08:38:06.727Z,3.80
2019-03-19T08:40:34.834Z,3.00
2019-03-19T08:43:03.033Z,3.27
2019-03-19T08:45:31.131Z,3.20
2019-03-19T08:47:59.236Z,1.90
2019-03-19T08:50:27.359Z,2.50
2019-03-19T08:52:55.814Z,2.17
2019-03-19T08:55:24.077Z,2.30
2019-03-19T08:57:52.180Z,1.60
2019-03-19T09:00:20.586Z,2.13
2019-03-19T09:02:49.018Z,2.33
2019-03-19T09:05:17.139Z,1.77
2019-03-19T09:07:45.243Z,1.70
2019-03-19T09:10:14.163Z,2.03
2019-03-19T09:12:42.270Z,1.87
2019-03-19T09:15:13.825Z,1.73
2019-03-19T09:17:41.925Z,1.50
2019-03-19T09:20:11.220Z,1.37
2019-03-19T09:22:39.396Z,1.50
2019-03-19T09:25:08.587Z,1.40
2019-03-19T09:27:36.713Z,1.47
2019-03-19T09:30:06.692Z,2.00
2019-03-19T09:32:34.813Z,2.13
2019-03-19T09:35:03.241Z,1.87
2019-03-19T09:37:31.359Z,1.87
2019-03-19T09:39:59.817Z,2.27
2019-03-19T09:42:27.936Z,1.40
2019-03-19T09:44:58.650Z,2.10
2019-03-19T09:47:25.905Z,1.70
2019-03-19T09:49:54.013Z,2.20
2019-03-19T09:52:22.153Z,1.90
2019-03-19T09:54:50.387Z,2.30
2019-03-19T09:57:18.497Z,1.80
2019-03-19T09:59:46.626Z,1.80
2019-03-19T10:02:14.737Z,1.80
2019-03-19T10:04:42.869Z,1.63
2019-03-19T10:07:10.980Z,2.00
2019-03-19T10:09:39.108Z,1.43
2019-03-19T10:12:07.311Z,1.60
2019-03-19T10:14:35.487Z,1.63
2019-03-19T10:17:03.595Z,1.30
2019-03-19T10:19:31.720Z,1.77
2019-03-19T10:21:59.882Z,1.70
2019-03-19T10:24:28.025Z,1.80
2019-03-19T10:26:56.129Z,1.27
2019-03-19T10:29:24.232Z,1.60
2019-03-19T10:31:52.350Z,1.93
2019-03-19T10:34:20.459Z,1.87
2019-03-19T10:36:48.580Z,1.67
2019-03-19T10:39:16.683Z,1.87
2019-03-19T10:41:44.809Z,1.90
2019-03-19T10:44:12.984Z,1.83
2019-03-19T10:46:41.235Z,1.97
2019-03-19T10:49:09.405Z,1.90
2019-03-19T10:51:37.508Z,2.10
2019-03-19T10:54:05.713Z,1.90
2019-03-19T10:56:33.811Z,2.30
2019-03-19T10:59:01.948Z,1.80
2019-03-19T11:01:30.116Z,2.10
2019-03-19T11:03:58.567Z,1.60
2019-03-19T11:06:26.685Z,1.97
2019-03-19T11:08:54.807Z,1.80
2019-03-19T11:11:22.921Z,2.00
2019-03-19T11:13:51.047Z,2.03
2019-03-19T11:16:19.158Z,2.30
2019-03-19T11:18:47.288Z,2.40
2019-03-19T11:21:15.515Z,2.27
2019-03-19T11:23:43.685Z,2.67
2019-03-19T11:26:11.809Z,2.37
2019-03-19T11:28:40.028Z,3.27
2019-03-19T11:31:08.216Z,2.57
2019-03-19T11:33:36.359Z,2.33
2019-03-19T11:36:04.627Z,1.77
2019-03-19T11:38:32.745Z,1.80
2019-03-19T11:41:00.861Z,2.10
2019-03-19T11:43:28.968Z,2.20
2019-03-19T11:45:57.092Z,2.13
2019-03-19T11:48:25.207Z,2.37
2019-03-19T11:50:53.328Z,2.50
2019-03-19T11:53:21.448Z,2.37
2019-03-19T11:55:49.568Z,2.27
2019-03-19T11:58:17.688Z,3.00
2019-03-19T12:00:47.471Z,2.73
2019-03-19T12:03:16.619Z,3.03
2019-03-19T12:05:44.960Z,2.77
2019-03-19T12:08:13.089Z,3.03
2019-03-19T12:10:41.198Z,2.83
2019-03-19T12:13:09.317Z,2.70
2019-03-19T12:15:37.492Z,2.70
2019-03-19T12:18:05.784Z,2.77
2019-03-19T12:20:34.006Z,2.80
2019-03-19T12:23:02.183Z,2.83
2019-03-19T12:25:31.400Z,2.80
2019-03-19T12:27:59.703Z,3.30
2019-03-19T12:30:27.800Z,2.80
2019-03-19T12:32:56.012Z,2.93
2019-03-19T12:35:24.125Z,2.80
2019-03-19T12:37:52.227Z,3.07
2019-03-19T12:40:21.031Z,2.60
2019-03-19T12:42:49.289Z,2.30
2019-03-19T12:45:17.984Z,2.30
2019-03-19T12:47:46.353Z,2.33
2019-03-19T12:50:15.650Z,2.13
2019-03-19T12:52:43.752Z,1.93
2019-03-19T12:55:11.963Z,2.37
2019-03-19T12:57:40.135Z,2.03
2019-03-19T13:00:10.093Z,2.73
2019-03-19T13:02:38.271Z,2.40
2019-03-19T13:05:07.273Z,1.90
2019-03-19T13:07:35.379Z,2.17
2019-03-19T13:10:05.375Z,2.37
2019-03-19T13:12:33.480Z,2.50
2019-03-19T13:15:01.604Z,2.50
2019-03-19T13:17:29.732Z,2.27
2019-03-19T13:19:57.896Z,3.07
2019-03-19T13:22:26.024Z,1.87
2019-03-19T13:24:54.137Z,2.40
2019-03-19T13:27:22.337Z,2.43
2019-03-19T13:29:50.509Z,2.20
2019-03-19T13:32:18.648Z,2.50
2019-03-19T13:34:46.751Z,2.30
2019-03-19T13:37:14.876Z,2.27
2019-03-19T13:39:43.089Z,2.40
2019-03-19T13:42:11.221Z,2.00
2019-03-19T13:44:39.333Z,2.13
2019-03-19T13:47:07.462Z,2.37
2019-03-19T13:49:35.579Z,2.50
2019-03-19T13:52:03.795Z,2.03
2019-03-19T13:54:31.968Z,2.30
2019-03-19T13:57:00.091Z,2.17
2019-03-19T13:59:28.201Z,2.00
2019-03-19T14:01:56.380Z,2.77
2019-03-19T14:04:24.533Z,2.40
2019-03-19T14:06:52.951Z,2.10
2019-03-19T14:09:21.068Z,2.43
2019-03-19T14:11:49.181Z,2.20
2019-03-19T14:14:17.576Z,2.60
2019-03-19T14:16:45.711Z,2.63
2019-03-19T14:19:13.938Z,2.57
2019-03-19T14:21:42.130Z,2.33
2019-03-19T14:24:10.327Z,2.60
2019-03-19T14:26:38.441Z,2.80
2019-03-19T14:29:06.586Z,2.77
2019-03-19T14:31:34.687Z,2.47
2019-03-19T14:34:02.925Z,2.80
2019-03-19T14:36:31.097Z,2.97
2019-03-19T14:38:59.230Z,2.67
2019-03-19T14:41:27.400Z,3.40
2019-03-19T14:43:55.848Z,2.80
2019-03-19T14:46:24.056Z,2.90
2019-03-19T14:48:52.182Z,3.40
2019-03-19T14:51:20.350Z,3.10
2019-03-19T14:53:48.500Z,8.17
2019-03-19T14:56:16.607Z,3.77
2019-03-19T14:58:44.736Z,5.17
2019-03-19T15:01:19.227Z,6.77
2019-03-19T15:03:42.720Z,2.90
2019-03-19T15:06:10.849Z,2.70
2019-03-19T15:08:39.037Z,2.90
2019-03-19T15:11:07.254Z,2.67
2019-03-19T15:13:35.370Z,3.00
2019-03-19T15:16:03.520Z,3.00
2019-03-19T15:18:31.623Z,4.90
2019-03-19T15:20:59.751Z,5.80
2019-03-19T15:23:28.232Z,5.50
2019-03-19T15:25:56.382Z,3.10
2019-03-19T15:28:24.573Z,3.60
2019-03-19T15:30:52.726Z,2.97
2019-03-19T15:33:20.833Z,2.90
2019-03-19T15:35:48.973Z,6.60
2019-03-19T15:38:17.083Z,5.97
2019-03-19T15:40:47.262Z,2.97
2019-03-19T15:43:15.197Z,9.73
2019-03-19T15:45:43.331Z,17.33
2019-03-19T15:48:11.509Z,4.73
2019-03-19T15:50:39.645Z,2.97
2019-03-19T15:53:07.767Z,3.00
2019-03-19T15:55:35.952Z,2.80
2019-03-19T15:58:04.344Z,3.73
2019-03-19T16:00:32.457Z,2.93
2019-03-19T16:03:00.649Z,3.73
2019-03-19T16:05:28.757Z,2.80
2019-03-19T16:07:56.890Z,2.97
2019-03-19T16:10:24.994Z,3.30
2019-03-19T16:12:53.209Z,3.00
2019-03-19T16:15:22.252Z,2.73
2019-03-19T16:17:50.452Z,2.73
2019-03-19T16:20:21.703Z,2.50
2019-03-19T16:22:49.833Z,3.40
2019-03-19T16:25:18.003Z,3.07
2019-03-19T16:27:46.214Z,3.30
2019-03-19T16:30:14.999Z,4.17
2019-03-19T16:32:43.136Z,3.20
2019-03-19T16:35:11.704Z,4.07
2019-03-19T16:37:40.056Z,3.63
2019-03-19T16:40:09.700Z,3.37
2019-03-19T16:42:37.831Z,3.07
2019-03-19T16:45:07.476Z,3.13
2019-03-19T16:47:35.684Z,4.67
2019-03-19T16:50:05.370Z,7.53
2019-03-19T16:52:33.502Z,5.73
2019-03-19T16:55:01.608Z,3.77
2019-03-19T16:57:29.732Z,3.00
2019-03-19T16:59:57.846Z,3.00
2019-03-19T17:02:25.961Z,2.93
2019-03-19T17:04:54.111Z,3.83
2019-03-19T17:07:22.239Z,3.63
2019-03-19T17:09:50.352Z,3.60
2019-03-19T17:12:18.521Z,3.70
2019-03-19T17:14:46.649Z,3.23
2019-03-19T17:17:14.756Z,3.30
2019-03-19T17:19:42.950Z,3.90
2019-03-19T17:22:11.080Z,3.80
2019-03-19T17:24:39.251Z,4.40
2019-03-19T17:27:07.397Z,4.43
2019-03-19T17:29:35.519Z,4.30
2019-03-19T17:32:12.503Z,5.53
2019-03-19T17:34:33.652Z,6.33
2019-03-19T17:37:01.760Z,4.70
2019-03-19T17:39:29.948Z,3.83
2019-03-19T17:41:58.087Z,4.40
2019-03-19T17:44:26.279Z,4.03
2019-03-19T17:46:54.401Z,4.30
2019-03-19T17:49:22.516Z,4.10
2019-03-19T17:51:50.641Z,4.13
2019-03-19T17:54:18.777Z,3.60
2019-03-19T17:56:46.909Z,4.13
2019-03-19T17:59:15.026Z,3.57
2019-03-19T18:01:43.181Z,3.97
2019-03-19T18:04:11.379Z,4.30
2019-03-19T18:06:39.665Z,4.80
2019-03-19T18:09:07.839Z,4.47
2019-03-19T18:11:35.963Z,4.83
2019-03-19T18:14:04.311Z,4.83
2019-03-19T18:16:32.490Z,5.50
2019-03-19T18:19:00.607Z,5.03
2019-03-19T18:21:28.744Z,5.00
2019-03-19T18:23:56.884Z,4.63
2019-03-19T18:26:25.008Z,5.13
2019-03-19T18:28:53.120Z,4.60
2019-03-19T18:31:21.260Z,4.63
2019-03-19T18:33:49.368Z,4.50
2019-03-19T18:36:17.496Z,4.23
2019-03-19T18:38:45.607Z,5.20
2019-03-19T18:41:13.743Z,4.90
2019-03-19T18:43:41.917Z,4.73
2019-03-19T18:46:10.044Z,4.50
2019-03-19T18:48:38.278Z,5.03
2019-03-19T18:51:06.436Z,4.77
2019-03-19T18:53:34.538Z,4.87
2019-03-19T18:56:02.739Z,6.33
2019-03-19T18:58:30.850Z,5.77
2019-03-19T19:00:58.972Z,5.90
2019-03-19T19:03:27.179Z,5.80
2019-03-19T19:05:55.294Z,5.90
2019-03-19T19:08:23.420Z,5.63
2019-03-19T19:10:51.535Z,5.83
2019-03-19T19:13:19.663Z,6.10
2019-03-19T19:15:47.776Z,5.63
2019-03-19T19:18:15.902Z,5.87
2019-03-19T19:20:44.011Z,5.23
2019-03-19T19:23:12.140Z,5.37
2019-03-19T19:25:40.248Z,5.43
2019-03-19T19:28:08.377Z,5.70
2019-03-19T19:30:36.496Z,6.00
2019-03-19T19:33:04.788Z,6.43
2019-03-19T19:35:32.900Z,6.23
2019-03-19T19:38:03.236Z,6.47
2019-03-19T19:40:31.025Z,7.20
2019-03-19T19:42:59.166Z,8.43
2019-03-19T19:45:27.358Z,6.93
2019-03-19T19:47:55.548Z,7.43
2019-03-19T19:50:23.665Z,7.40
2019-03-19T19:52:51.817Z,7.30
2019-03-19T19:55:19.919Z,7.57
2019-03-19T19:57:48.037Z,7.17
2019-03-19T20:00:17.716Z,7.30
2019-03-19T20:02:46.097Z,6.97
2019-03-19T20:05:14.288Z,7.33
2019-03-19T20:07:42.468Z,6.93
2019-03-19T20:10:14.932Z,6.80
2019-03-19T20:12:43.045Z,6.03
2019-03-19T20:15:11.545Z,6.23
2019-03-19T20:17:39.656Z,6.70
2019-03-19T20:20:09.324Z,6.47
2019-03-19T20:22:37.441Z,6.67
2019-03-19T20:25:05.946Z,6.80
2019-03-19T20:27:34.111Z,6.43
2019-03-19T20:30:02.316Z,7.07
2019-03-19T20:32:30.430Z,7.17
2019-03-19T20:34:58.569Z,6.37
2019-03-19T20:37:26.687Z,6.47
2019-03-19T20:39:54.815Z,7.57
2019-03-19T20:42:22.941Z,7.33
2019-03-19T20:44:51.076Z,8.63
2019-03-19T20:47:19.521Z,8.53
2019-03-19T20:49:48.137Z,7.53
2019-03-19T20:52:16.357Z,7.40
2019-03-19T20:54:44.472Z,7.00
2019-03-19T20:57:12.631Z,6.50
2019-03-19T20:59:40.753Z,7.07
2019-03-19T21:02:08.876Z,7.30
2019-03-19T21:04:36.993Z,6.97
2019-03-19T21:07:05.201Z,8.10
2019-03-19T21:09:33.322Z,7.13
2019-03-19T21:12:01.475Z,7.83
2019-03-19T21:14:29.605Z,7.47
2019-03-19T21:16:57.740Z,6.70
2019-03-19T21:19:25.864Z,6.83
2019-03-19T21:21:54.008Z,7.17
2019-03-19T21:24:22.125Z,6.67
2019-03-19T21:26:50.274Z,6.43
2019-03-19T21:29:18.378Z,6.60
2019-03-19T21:31:46.511Z,6.30
2019-03-19T21:34:14.620Z,6.73
2019-03-19T21:36:42.772Z,7.70
2019-03-19T21:39:10.875Z,6.10
2019-03-19T21:41:38.992Z,5.63
2019-03-19T21:44:07.146Z,5.93
2019-03-19T21:46:35.261Z,6.03
2019-03-19T21:49:03.413Z,5.40
2019-03-19T21:51:31.536Z,5.47
2019-03-19T21:53:59.681Z,5.50
2019-03-19T21:56:27.801Z,5.70
2019-03-19T21:58:55.932Z,6.07
2019-03-19T22:01:24.056Z,6.30
2019-03-19T22:04:02.402Z,5.93
2019-03-19T22:06:22.097Z,5.43
2019-03-19T22:08:50.239Z,6.00
2019-03-19T22:11:18.347Z,6.50
2019-03-19T22:13:46.493Z,5.53
2019-03-19T22:16:14.606Z,6.23
2019-03-19T22:18:42.740Z,6.03
2019-03-19T22:21:10.864Z,5.87
2019-03-19T22:23:39.016Z,6.33
2019-03-19T22:26:07.186Z,6.50
2019-03-19T22:28:35.384Z,6.10
2019-03-19T22:31:03.580Z,5.40
2019-03-19T22:33:33.665Z,5.07
2019-03-19T22:36:01.556Z,5.97
2019-03-19T22:38:29.677Z,4.67
2019-03-19T22:40:57.864Z,5.73
2019-03-19T22:43:26.114Z,5.73
2019-03-19T22:45:54.380Z,5.10
2019-03-19T22:48:22.500Z,5.17
2019-03-19T22:50:50.635Z,5.10
2019-03-19T22:53:18.901Z,4.90
2019-03-19T22:55:47.082Z,4.87
2019-03-19T22:58:15.217Z,4.77
2019-03-19T23:00:47.508Z,5.60
2019-03-19T23:03:15.619Z,5.37
2019-03-19T23:05:43.747Z,5.30
2019-03-19T23:08:11.934Z,5.17
2019-03-19T23:10:40.073Z,5.10
2019-03-19T23:13:08.261Z,4.97
2019-03-19T23:15:36.422Z,5.17
2019-03-19T23:18:04.645Z,4.63
2019-03-19T23:20:32.804Z,4.73
2019-03-19T23:23:00.937Z,5.07
2019-03-19T23:25:29.054Z,5.60
2019-03-19T23:27:57.198Z,4.73
2019-03-19T23:30:25.474Z,4.80
2019-03-19T23:32:53.606Z,5.20
2019-03-19T23:35:21.794Z,5.27
2019-03-19T23:37:49.938Z,5.23
2019-03-19T23:40:18.925Z,4.50
2019-03-19T23:42:47.053Z,4.93
2019-03-19T23:45:15.184Z,4.90
2019-03-19T23:47:43.489Z,5.13
2019-03-19T23:50:12.352Z,4.67
2019-03-19T23:52:40.492Z,4.90
2019-03-19T23:55:08.988Z,5.17
2019-03-19T23:57:37.184Z,4.87
